AAL15 KPHX-KDEN
Flight info
| Callsign | AAL15 |
|---|---|
| Flight time | 1h 18m |
| Altitude | 35000 |
| Route | MRBIL1 JARPA CRUDD TBARR4 |
| Aircraft | B738/M-SDE2E3FGHIRWXY/LB1 |
Departure
| Time | 2026-05-03 20:46 |
|---|---|
| Airport | Phoenix Sky Harbor International Airport (KPHX) |
Arrival
| Time | 2026-05-03 22:05 |
|---|---|
| Airport | Denver International Airport (KDEN) |
| Time | Latitude | Longitude | Altitude | Speed | Heading |
|---|---|---|---|---|---|
| 2026-05-03 20:17 | 33.43832 | -112.00129 | 1138 ft | 0 kts | 232° |
| 2026-05-03 20:28 | 33.43830 | -112.00132 | 1138 ft | 2 kts | 232° |
| 2026-05-03 20:28 | 33.43808 | -112.00166 | 1137 ft | 4 kts | 234° |
| 2026-05-03 20:29 | 33.43799 | -112.00204 | 1137 ft | 4 kts | 270° |
| 2026-05-03 20:29 | 33.43809 | -112.00243 | 1137 ft | 4 kts | 304° |
| 2026-05-03 20:29 | 33.43837 | -112.00268 | 1138 ft | 4 kts | 339° |
| 2026-05-03 20:29 | 33.43860 | -112.00272 | 1138 ft | 1 kts | 1° |
| 2026-05-03 20:30 | 33.43862 | -112.00272 | 1138 ft | 0 kts | 0° |
| 2026-05-03 20:34 | 33.43866 | -112.00272 | 1137 ft | 0 kts | 360° |
| 2026-05-03 20:35 | 33.43867 | -112.00272 | 1137 ft | 0 kts | 360° |
| 2026-05-03 20:35 | 33.43885 | -112.00279 | 1138 ft | 6 kts | 321° |
| 2026-05-03 20:35 | 33.43895 | -112.00320 | 1138 ft | 5 kts | 262° |
| 2026-05-03 20:36 | 33.43888 | -112.00384 | 1138 ft | 13 kts | 259° |
| 2026-05-03 20:36 | 33.43800 | -112.00463 | 1138 ft | 17 kts | 185° |
| 2026-05-03 20:36 | 33.43681 | -112.00465 | 1138 ft | 16 kts | 180° |
| 2026-05-03 20:36 | 33.43564 | -112.00467 | 1136 ft | 16 kts | 180° |
| 2026-05-03 20:37 | 33.43446 | -112.00465 | 1135 ft | 16 kts | 179° |
| 2026-05-03 20:37 | 33.43335 | -112.00462 | 1135 ft | 15 kts | 178° |
| 2026-05-03 20:37 | 33.43243 | -112.00476 | 1134 ft | 10 kts | 232° |
| 2026-05-03 20:37 | 33.43213 | -112.00543 | 1135 ft | 8 kts | 264° |
| 2026-05-03 20:38 | 33.43209 | -112.00610 | 1135 ft | 9 kts | 268° |
| 2026-05-03 20:38 | 33.43211 | -112.00706 | 1135 ft | 13 kts | 271° |
| 2026-05-03 20:38 | 33.43213 | -112.00837 | 1136 ft | 18 kts | 270° |
| 2026-05-03 20:38 | 33.43213 | -112.01015 | 1135 ft | 24 kts | 269° |
| 2026-05-03 20:39 | 33.43208 | -112.01238 | 1134 ft | 30 kts | 269° |
| 2026-05-03 20:39 | 33.43212 | -112.01494 | 1132 ft | 30 kts | 271° |
| 2026-05-03 20:39 | 33.43214 | -112.01751 | 1129 ft | 30 kts | 270° |
| 2026-05-03 20:39 | 33.43216 | -112.02007 | 1126 ft | 31 kts | 270° |
| 2026-05-03 20:40 | 33.43216 | -112.02174 | 1126 ft | 13 kts | 269° |
| 2026-05-03 20:40 | 33.43215 | -112.02273 | 1127 ft | 11 kts | 270° |
| 2026-05-03 20:40 | 33.43216 | -112.02360 | 1127 ft | 9 kts | 270° |
| 2026-05-03 20:40 | 33.43216 | -112.02436 | 1127 ft | 8 kts | 270° |
| 2026-05-03 20:41 | 33.43216 | -112.02505 | 1127 ft | 9 kts | 269° |
| 2026-05-03 20:41 | 33.43214 | -112.02611 | 1125 ft | 15 kts | 269° |
| 2026-05-03 20:41 | 33.43196 | -112.02676 | 1124 ft | 0 kts | 216° |
| 2026-05-03 20:44 | 33.43191 | -112.02679 | 1124 ft | 3 kts | 209° |
| 2026-05-03 20:45 | 33.43133 | -112.02676 | 1124 ft | 13 kts | 137° |
| 2026-05-03 20:45 | 33.43106 | -112.02512 | 1126 ft | 44 kts | 92° |
| 2026-05-03 20:45 | 33.43105 | -112.01833 | 1129 ft | 117 kts | 91° |
| 2026-05-03 20:45 | 33.43103 | -112.01726 | 1129 ft | 124 kts | 93° |
| 2026-05-03 20:46 | 33.43098 | -112.01150 | 1134 ft | 154 kts | 88° |
| 2026-05-03 20:46 | 33.43125 | -111.99728 | 1306 ft | 190 kts | 89° |
| 2026-05-03 20:46 | 33.43211 | -111.98196 | 2159 ft | 190 kts | 88° |
| 2026-05-03 20:46 | 33.43359 | -111.96549 | 2681 ft | 211 kts | 90° |
| 2026-05-03 20:47 | 33.43413 | -111.94758 | 3151 ft | 224 kts | 93° |
| 2026-05-03 20:47 | 33.43440 | -111.92837 | 3610 ft | 238 kts | 92° |
| 2026-05-03 20:47 | 33.43500 | -111.90824 | 4083 ft | 250 kts | 91° |
| 2026-05-03 20:47 | 33.43592 | -111.88744 | 4708 ft | 254 kts | 90° |
| 2026-05-03 20:48 | 33.43984 | -111.86635 | 5357 ft | 266 kts | 66° |
| 2026-05-03 20:48 | 33.45147 | -111.84949 | 6075 ft | 277 kts | 39° |
| 2026-05-03 20:48 | 33.46919 | -111.83856 | 6576 ft | 295 kts | 17° |
| 2026-05-03 20:48 | 33.48969 | -111.83487 | 7280 ft | 302 kts | 2° |
| 2026-05-03 20:49 | 33.51087 | -111.83476 | 8061 ft | 306 kts | 359° |
| 2026-05-03 20:49 | 33.53220 | -111.83540 | 8742 ft | 312 kts | 358° |
| 2026-05-03 20:49 | 33.55408 | -111.83598 | 8982 ft | 313 kts | 359° |
| 2026-05-03 20:49 | 33.57603 | -111.83632 | 9025 ft | 313 kts | 359° |
| 2026-05-03 20:50 | 33.59771 | -111.83646 | 9038 ft | 310 kts | 359° |
| 2026-05-03 20:50 | 33.61930 | -111.83652 | 9044 ft | 309 kts | 359° |
| 2026-05-03 20:50 | 33.64072 | -111.83653 | 9051 ft | 310 kts | 1° |
| 2026-05-03 20:50 | 33.66226 | -111.83402 | 9084 ft | 318 kts | 11° |
| 2026-05-03 20:51 | 33.68396 | -111.82782 | 10001 ft | 317 kts | 16° |
| 2026-05-03 20:51 | 33.70495 | -111.82060 | 10798 ft | 324 kts | 16° |
| 2026-05-03 20:51 | 33.72726 | -111.81278 | 11380 ft | 340 kts | 16° |
| 2026-05-03 20:51 | 33.75054 | -111.80483 | 11941 ft | 355 kts | 15° |
| 2026-05-03 20:52 | 33.77461 | -111.79681 | 12511 ft | 370 kts | 15° |
| 2026-05-03 20:52 | 33.79943 | -111.78602 | 13054 ft | 385 kts | 26° |
| 2026-05-03 20:52 | 33.82259 | -111.76950 | 13919 ft | 390 kts | 34° |
| 2026-05-03 20:52 | 33.84419 | -111.75026 | 14853 ft | 393 kts | 38° |
| 2026-05-03 20:53 | 33.86579 | -111.72945 | 15644 ft | 401 kts | 38° |
| 2026-05-03 20:53 | 33.88759 | -111.70818 | 16544 ft | 405 kts | 38° |
| 2026-05-03 20:53 | 33.90951 | -111.68705 | 17328 ft | 411 kts | 37° |
| 2026-05-03 20:53 | 33.93214 | -111.66564 | 18131 ft | 417 kts | 36° |
| 2026-05-03 20:54 | 33.95522 | -111.64410 | 18829 ft | 425 kts | 35° |
| 2026-05-03 20:54 | 34.00253 | -111.60054 | 20347 ft | 435 kts | 33° |
| 2026-05-03 20:54 | 34.02746 | -111.57939 | 21004 ft | 441 kts | 30° |
| 2026-05-03 20:55 | 34.05303 | -111.55935 | 21693 ft | 446 kts | 28° |
| 2026-05-03 20:55 | 34.07957 | -111.53931 | 22310 ft | 452 kts | 27° |
| 2026-05-03 20:55 | 34.10657 | -111.51917 | 23017 ft | 456 kts | 27° |
| 2026-05-03 20:55 | 34.13371 | -111.49890 | 23618 ft | 462 kts | 27° |
| 2026-05-03 20:56 | 34.16069 | -111.47858 | 24332 ft | 465 kts | 27° |
| 2026-05-03 20:56 | 34.18841 | -111.45760 | 24779 ft | 474 kts | 27° |
| 2026-05-03 20:56 | 34.21614 | -111.43642 | 25552 ft | 473 kts | 26° |
| 2026-05-03 20:56 | 34.24432 | -111.41486 | 25953 ft | 482 kts | 26° |
| 2026-05-03 20:57 | 34.27272 | -111.39303 | 26565 ft | 484 kts | 26° |
| 2026-05-03 20:57 | 34.30115 | -111.37111 | 27053 ft | 489 kts | 26° |
| 2026-05-03 20:57 | 34.32992 | -111.34887 | 27637 ft | 492 kts | 26° |
| 2026-05-03 20:57 | 34.35889 | -111.32647 | 28051 ft | 498 kts | 26° |
| 2026-05-03 20:58 | 34.38773 | -111.30411 | 28929 ft | 492 kts | 25° |
| 2026-05-03 20:58 | 34.41643 | -111.28178 | 29734 ft | 487 kts | 25° |
| 2026-05-03 20:58 | 34.44512 | -111.25950 | 30136 ft | 492 kts | 25° |
| 2026-05-03 20:58 | 34.47378 | -111.23721 | 30838 ft | 490 kts | 24° |
| 2026-05-03 20:59 | 34.50241 | -111.21495 | 31465 ft | 488 kts | 24° |
| 2026-05-03 20:59 | 34.53074 | -111.19290 | 32059 ft | 487 kts | 24° |
| 2026-05-03 20:59 | 34.55911 | -111.17084 | 32651 ft | 486 kts | 24° |
| 2026-05-03 20:59 | 34.58746 | -111.14838 | 33166 ft | 488 kts | 26° |
| 2026-05-03 21:00 | 34.61472 | -111.12422 | 33799 ft | 490 kts | 30° |
| 2026-05-03 21:00 | 34.63238 | -111.10686 | 34285 ft | 489 kts | 32° |
| 2026-05-03 21:00 | 34.66620 | -111.07004 | 35106 ft | 490 kts | 35° |
| 2026-05-03 21:00 | 34.69088 | -111.04122 | 35283 ft | 498 kts | 37° |
| 2026-05-03 21:01 | 34.73999 | -110.98195 | 35278 ft | 497 kts | 38° |
| 2026-05-03 21:01 | 34.78818 | -110.92286 | 35267 ft | 492 kts | 38° |
| 2026-05-03 21:02 | 34.83646 | -110.86393 | 35270 ft | 493 kts | 38° |
| 2026-05-03 21:02 | 34.88497 | -110.80469 | 35268 ft | 494 kts | 37° |
| 2026-05-03 21:03 | 34.93343 | -110.74560 | 35240 ft | 493 kts | 37° |
| 2026-05-03 21:03 | 34.98178 | -110.68668 | 35224 ft | 495 kts | 37° |
| 2026-05-03 21:04 | 35.03020 | -110.62737 | 35226 ft | 493 kts | 37° |
| 2026-05-03 21:04 | 35.07865 | -110.56795 | 35241 ft | 494 kts | 37° |
| 2026-05-03 21:05 | 35.12661 | -110.50916 | 35259 ft | 492 kts | 37° |
| 2026-05-03 21:05 | 35.17493 | -110.44979 | 35277 ft | 493 kts | 37° |
| 2026-05-03 21:06 | 35.22307 | -110.39048 | 35277 ft | 491 kts | 37° |
| 2026-05-03 21:06 | 35.27118 | -110.33112 | 35273 ft | 491 kts | 38° |
| 2026-05-03 21:07 | 35.31956 | -110.27133 | 35274 ft | 492 kts | 38° |
| 2026-05-03 21:07 | 35.36760 | -110.21188 | 35259 ft | 492 kts | 38° |
| 2026-05-03 21:08 | 35.41556 | -110.15226 | 35168 ft | 489 kts | 38° |
| 2026-05-03 21:08 | 35.46374 | -110.09239 | 35169 ft | 495 kts | 38° |
| 2026-05-03 21:09 | 35.51204 | -110.03227 | 35174 ft | 490 kts | 37° |
| 2026-05-03 21:09 | 35.55976 | -109.97285 | 35184 ft | 492 kts | 37° |
| 2026-05-03 21:10 | 35.60808 | -109.91248 | 35186 ft | 493 kts | 37° |
| 2026-05-03 21:10 | 35.65582 | -109.85254 | 35199 ft | 492 kts | 38° |
| 2026-05-03 21:11 | 35.70387 | -109.79224 | 35208 ft | 494 kts | 37° |
| 2026-05-03 21:11 | 35.75369 | -109.73390 | 35220 ft | 491 kts | 33° |
| 2026-05-03 21:12 | 35.80522 | -109.67886 | 35220 ft | 490 kts | 31° |
| 2026-05-03 21:12 | 35.85651 | -109.62427 | 35226 ft | 484 kts | 32° |
| 2026-05-03 21:13 | 35.90738 | -109.56943 | 35233 ft | 487 kts | 32° |
| 2026-05-03 21:13 | 35.95811 | -109.51408 | 35233 ft | 488 kts | 32° |
| 2026-05-03 21:14 | 36.00865 | -109.45856 | 35236 ft | 485 kts | 33° |
| 2026-05-03 21:14 | 36.05958 | -109.40258 | 35247 ft | 489 kts | 32° |
| 2026-05-03 21:15 | 36.10965 | -109.34742 | 35245 ft | 487 kts | 33° |
| 2026-05-03 21:15 | 36.16022 | -109.29137 | 35249 ft | 488 kts | 33° |
| 2026-05-03 21:16 | 36.21101 | -109.23520 | 35249 ft | 488 kts | 33° |
| 2026-05-03 21:16 | 36.26117 | -109.17954 | 35263 ft | 486 kts | 33° |
| 2026-05-03 21:17 | 36.30335 | -109.13274 | 35260 ft | 490 kts | 33° |
| 2026-05-03 21:17 | 36.36268 | -109.06679 | 35248 ft | 487 kts | 33° |
| 2026-05-03 21:18 | 36.41291 | -109.01077 | 35250 ft | 487 kts | 33° |
| 2026-05-03 21:18 | 36.46314 | -108.95471 | 35253 ft | 487 kts | 33° |
| 2026-05-03 21:19 | 36.51348 | -108.89833 | 35246 ft | 489 kts | 33° |
| 2026-05-03 21:19 | 36.56394 | -108.84180 | 35210 ft | 485 kts | 33° |
| 2026-05-03 21:20 | 36.61388 | -108.78569 | 35189 ft | 483 kts | 33° |
| 2026-05-03 21:20 | 36.66407 | -108.72930 | 35190 ft | 486 kts | 33° |
| 2026-05-03 21:21 | 36.71402 | -108.67309 | 35170 ft | 483 kts | 33° |
| 2026-05-03 21:21 | 36.76385 | -108.61696 | 35164 ft | 487 kts | 33° |
| 2026-05-03 21:22 | 36.81388 | -108.56028 | 35161 ft | 482 kts | 33° |
| 2026-05-03 21:22 | 36.86353 | -108.50402 | 35167 ft | 486 kts | 33° |
| 2026-05-03 21:23 | 36.91350 | -108.44728 | 35169 ft | 483 kts | 33° |
| 2026-05-03 21:23 | 36.96314 | -108.39057 | 35182 ft | 482 kts | 33° |
| 2026-05-03 21:24 | 37.01225 | -108.33463 | 35181 ft | 481 kts | 34° |
| 2026-05-03 21:24 | 37.06181 | -108.27814 | 35201 ft | 484 kts | 34° |
| 2026-05-03 21:25 | 37.11141 | -108.22142 | 35217 ft | 480 kts | 34° |
| 2026-05-03 21:25 | 37.16048 | -108.16528 | 35244 ft | 479 kts | 34° |
| 2026-05-03 21:26 | 37.20938 | -108.10918 | 35250 ft | 479 kts | 34° |
| 2026-05-03 21:26 | 37.25824 | -108.05289 | 35253 ft | 475 kts | 34° |
| 2026-05-03 21:27 | 37.30708 | -107.99660 | 35282 ft | 475 kts | 34° |
| 2026-05-03 21:27 | 37.35541 | -107.94082 | 35280 ft | 474 kts | 34° |
| 2026-05-03 21:28 | 37.40360 | -107.88517 | 35285 ft | 473 kts | 34° |
| 2026-05-03 21:28 | 37.45245 | -107.82868 | 35293 ft | 476 kts | 34° |
| 2026-05-03 21:29 | 37.50087 | -107.77249 | 35303 ft | 473 kts | 34° |
| 2026-05-03 21:29 | 37.54923 | -107.71627 | 35309 ft | 474 kts | 35° |
| 2026-05-03 21:30 | 37.59710 | -107.66047 | 35323 ft | 470 kts | 35° |
| 2026-05-03 21:30 | 37.64515 | -107.60427 | 35327 ft | 473 kts | 34° |
| 2026-05-03 21:31 | 37.69308 | -107.54794 | 35333 ft | 468 kts | 34° |
| 2026-05-03 21:31 | 37.74076 | -107.49211 | 35329 ft | 470 kts | 35° |
| 2026-05-03 21:32 | 37.78843 | -107.43632 | 35340 ft | 467 kts | 35° |
| 2026-05-03 21:32 | 37.83610 | -107.38026 | 35356 ft | 469 kts | 35° |
| 2026-05-03 21:33 | 37.88339 | -107.32438 | 35366 ft | 465 kts | 36° |
| 2026-05-03 21:33 | 37.93059 | -107.26856 | 35366 ft | 465 kts | 36° |
| 2026-05-03 21:34 | 37.97799 | -107.21246 | 35375 ft | 466 kts | 36° |
| 2026-05-03 21:34 | 38.02490 | -107.15678 | 35390 ft | 462 kts | 36° |
| 2026-05-03 21:35 | 38.07217 | -107.10050 | 35407 ft | 464 kts | 36° |
| 2026-05-03 21:35 | 38.11855 | -107.04515 | 35405 ft | 462 kts | 36° |
| 2026-05-03 21:36 | 38.16484 | -106.98726 | 35414 ft | 465 kts | 41° |
| 2026-05-03 21:36 | 38.20663 | -106.92521 | 35320 ft | 466 kts | 44° |
| 2026-05-03 21:37 | 38.24812 | -106.86054 | 35404 ft | 473 kts | 45° |
| 2026-05-03 21:37 | 38.28939 | -106.79639 | 35387 ft | 467 kts | 44° |
| 2026-05-03 21:38 | 38.33076 | -106.73286 | 35392 ft | 465 kts | 44° |
| 2026-05-03 21:38 | 38.37217 | -106.66941 | 35382 ft | 467 kts | 44° |
| 2026-05-03 21:39 | 38.41341 | -106.60618 | 35375 ft | 465 kts | 44° |
| 2026-05-03 21:39 | 38.45483 | -106.54256 | 35353 ft | 465 kts | 45° |
| 2026-05-03 21:40 | 38.49589 | -106.47933 | 35358 ft | 466 kts | 45° |
| 2026-05-03 21:40 | 38.53729 | -106.41545 | 35331 ft | 462 kts | 45° |
| 2026-05-03 21:41 | 38.57807 | -106.35239 | 35310 ft | 465 kts | 45° |
| 2026-05-03 21:41 | 38.61882 | -106.28938 | 34985 ft | 457 kts | 46° |
| 2026-05-03 21:42 | 38.63907 | -106.25796 | 34577 ft | 454 kts | 46° |
| 2026-05-03 21:42 | 38.65886 | -106.22723 | 34171 ft | 450 kts | 46° |
| 2026-05-03 21:42 | 38.67868 | -106.19664 | 33674 ft | 447 kts | 46° |
| 2026-05-03 21:42 | 38.69850 | -106.16629 | 33195 ft | 443 kts | 46° |
| 2026-05-03 21:43 | 38.71836 | -106.13598 | 32731 ft | 439 kts | 46° |
| 2026-05-03 21:43 | 38.73786 | -106.10622 | 32254 ft | 435 kts | 46° |
| 2026-05-03 21:43 | 38.75718 | -106.07674 | 31782 ft | 432 kts | 46° |
| 2026-05-03 21:43 | 38.77625 | -106.04761 | 31302 ft | 429 kts | 46° |
| 2026-05-03 21:44 | 38.79536 | -106.01834 | 30808 ft | 425 kts | 46° |
| 2026-05-03 21:44 | 38.81420 | -105.98939 | 30330 ft | 422 kts | 47° |
| 2026-05-03 21:44 | 38.83279 | -105.96082 | 29866 ft | 418 kts | 46° |
| 2026-05-03 21:44 | 38.85128 | -105.93243 | 29418 ft | 415 kts | 46° |
| 2026-05-03 21:45 | 38.86972 | -105.90408 | 28962 ft | 412 kts | 46° |
| 2026-05-03 21:45 | 38.88809 | -105.87583 | 28511 ft | 409 kts | 46° |
| 2026-05-03 21:45 | 38.90600 | -105.84815 | 28065 ft | 406 kts | 47° |
| 2026-05-03 21:45 | 38.92378 | -105.82047 | 27639 ft | 402 kts | 47° |
| 2026-05-03 21:46 | 38.94167 | -105.79258 | 27189 ft | 399 kts | 47° |
| 2026-05-03 21:46 | 38.95917 | -105.76527 | 26750 ft | 397 kts | 47° |
| 2026-05-03 21:46 | 38.97646 | -105.73824 | 26302 ft | 394 kts | 47° |
| 2026-05-03 21:46 | 38.99365 | -105.71137 | 25865 ft | 391 kts | 47° |
| 2026-05-03 21:47 | 39.01084 | -105.68447 | 25435 ft | 388 kts | 47° |
| 2026-05-03 21:47 | 39.02780 | -105.65794 | 25189 ft | 380 kts | 47° |
| 2026-05-03 21:47 | 39.04458 | -105.63181 | 24695 ft | 379 kts | 47° |
| 2026-05-03 21:47 | 39.06146 | -105.60564 | 24250 ft | 376 kts | 47° |
| 2026-05-03 21:48 | 39.07793 | -105.58013 | 23818 ft | 373 kts | 47° |
| 2026-05-03 21:48 | 39.09444 | -105.55453 | 23391 ft | 371 kts | 47° |
| 2026-05-03 21:48 | 39.11077 | -105.52910 | 22967 ft | 368 kts | 47° |
| 2026-05-03 21:48 | 39.12690 | -105.50396 | 22559 ft | 365 kts | 47° |
| 2026-05-03 21:49 | 39.14299 | -105.47887 | 22121 ft | 362 kts | 47° |
| 2026-05-03 21:49 | 39.15890 | -105.45405 | 21711 ft | 359 kts | 48° |
| 2026-05-03 21:49 | 39.17476 | -105.42905 | 21291 ft | 357 kts | 48° |
| 2026-05-03 21:49 | 39.19019 | -105.40449 | 20881 ft | 354 kts | 48° |
| 2026-05-03 21:50 | 39.20563 | -105.37988 | 20456 ft | 352 kts | 49° |
| 2026-05-03 21:50 | 39.22106 | -105.35527 | 20038 ft | 349 kts | 49° |
| 2026-05-03 21:50 | 39.23625 | -105.33106 | 19639 ft | 346 kts | 49° |
| 2026-05-03 21:50 | 39.25129 | -105.30711 | 19241 ft | 343 kts | 49° |
| 2026-05-03 21:51 | 39.26602 | -105.28354 | 18842 ft | 340 kts | 50° |
| 2026-05-03 21:51 | 39.27931 | -105.25829 | 18430 ft | 340 kts | 60° |
| 2026-05-03 21:51 | 39.28799 | -105.23002 | 18035 ft | 339 kts | 75° |
| 2026-05-03 21:51 | 39.29253 | -105.20045 | 17735 ft | 334 kts | 80° |
| 2026-05-03 21:52 | 39.29590 | -105.17084 | 17272 ft | 335 kts | 81° |
| 2026-05-03 21:52 | 39.29898 | -105.14143 | 16882 ft | 333 kts | 81° |
| 2026-05-03 21:52 | 39.30211 | -105.11201 | 16482 ft | 332 kts | 81° |
| 2026-05-03 21:52 | 39.30537 | -105.08268 | 16085 ft | 330 kts | 80° |
| 2026-05-03 21:53 | 39.30869 | -105.05372 | 15699 ft | 328 kts | 80° |
| 2026-05-03 21:53 | 39.31209 | -105.02464 | 15320 ft | 326 kts | 80° |
| 2026-05-03 21:53 | 39.31560 | -104.99586 | 14929 ft | 324 kts | 78° |
| 2026-05-03 21:53 | 39.32019 | -104.96782 | 14599 ft | 320 kts | 75° |
| 2026-05-03 21:54 | 39.32561 | -104.93999 | 14422 ft | 311 kts | 73° |
| 2026-05-03 21:54 | 39.33090 | -104.91369 | 14347 ft | 299 kts | 74° |
| 2026-05-03 21:54 | 39.33595 | -104.88791 | 14257 ft | 289 kts | 74° |
| 2026-05-03 21:54 | 39.34109 | -104.86326 | 14070 ft | 282 kts | 71° |
| 2026-05-03 21:55 | 39.34708 | -104.83923 | 13763 ft | 281 kts | 69° |
| 2026-05-03 21:55 | 39.35341 | -104.81538 | 13452 ft | 280 kts | 69° |
| 2026-05-03 21:55 | 39.36113 | -104.79250 | 13155 ft | 277 kts | 57° |
| 2026-05-03 21:55 | 39.37293 | -104.77404 | 13117 ft | 261 kts | 36° |
| 2026-05-03 21:56 | 39.38752 | -104.76033 | 13129 ft | 259 kts | 31° |
| 2026-05-03 21:56 | 39.40266 | -104.74740 | 13117 ft | 263 kts | 31° |
| 2026-05-03 21:56 | 39.41773 | -104.73389 | 13099 ft | 263 kts | 33° |
| 2026-05-03 21:56 | 39.43238 | -104.72008 | 12986 ft | 258 kts | 33° |
| 2026-05-03 21:57 | 39.44664 | -104.70637 | 12774 ft | 254 kts | 34° |
| 2026-05-03 21:57 | 39.46078 | -104.69276 | 12513 ft | 252 kts | 33° |
| 2026-05-03 21:57 | 39.47478 | -104.67932 | 12253 ft | 254 kts | 34° |
| 2026-05-03 21:57 | 39.48975 | -104.66721 | 12078 ft | 253 kts | 20° |
| 2026-05-03 21:58 | 39.50660 | -104.66225 | 11914 ft | 249 kts | 359° |
| 2026-05-03 21:58 | 39.52406 | -104.66260 | 11404 ft | 257 kts | 354° |
| 2026-05-03 21:58 | 39.54214 | -104.66364 | 11050 ft | 257 kts | 356° |
| 2026-05-03 21:58 | 39.56010 | -104.66405 | 10593 ft | 262 kts | 357° |
| 2026-05-03 21:59 | 39.57781 | -104.66391 | 10249 ft | 245 kts | 358° |
| 2026-05-03 21:59 | 39.59431 | -104.66358 | 9993 ft | 226 kts | 358° |
| 2026-05-03 21:59 | 39.60971 | -104.66333 | 9650 ft | 216 kts | 358° |
| 2026-05-03 21:59 | 39.62442 | -104.66317 | 9369 ft | 207 kts | 358° |
| 2026-05-03 22:00 | 39.63837 | -104.66300 | 9113 ft | 197 kts | 357° |
| 2026-05-03 22:00 | 39.65190 | -104.66287 | 8910 ft | 195 kts | 358° |
| 2026-05-03 22:00 | 39.66547 | -104.66277 | 8625 ft | 196 kts | 357° |
| 2026-05-03 22:00 | 39.67911 | -104.66266 | 8361 ft | 191 kts | 357° |
| 2026-05-03 22:01 | 39.69206 | -104.66245 | 8122 ft | 183 kts | 357° |
| 2026-05-03 22:01 | 39.70453 | -104.66224 | 7905 ft | 176 kts | 357° |
| 2026-05-03 22:01 | 39.71689 | -104.66209 | 7651 ft | 177 kts | 357° |
| 2026-05-03 22:01 | 39.72928 | -104.66200 | 7423 ft | 178 kts | 356° |
| 2026-05-03 22:02 | 39.74172 | -104.66187 | 7191 ft | 178 kts | 358° |
| 2026-05-03 22:02 | 39.75357 | -104.66164 | 7060 ft | 164 kts | 356° |
| 2026-05-03 22:02 | 39.76498 | -104.66151 | 6818 ft | 165 kts | 356° |
| 2026-05-03 22:02 | 39.77646 | -104.66138 | 6548 ft | 163 kts | 356° |
| 2026-05-03 22:03 | 39.78769 | -104.66123 | 6321 ft | 162 kts | 356° |
| 2026-05-03 22:03 | 39.79903 | -104.66121 | 6140 ft | 162 kts | 356° |
| 2026-05-03 22:03 | 39.81054 | -104.66087 | 5895 ft | 168 kts | 358° |
| 2026-05-03 22:03 | 39.82253 | -104.66057 | 5561 ft | 176 kts | 358° |
| 2026-05-03 22:04 | 39.83424 | -104.66051 | 5416 ft | 156 kts | 356° |
| 2026-05-03 22:04 | 39.84243 | -104.66046 | 5407 ft | 84 kts | 359° |
| 2026-05-03 22:04 | 39.84713 | -104.66052 | 5405 ft | 60 kts | 347° |
| 2026-05-03 22:04 | 39.85088 | -104.66232 | 5411 ft | 51 kts | 356° |
| 2026-05-03 22:05 | 39.85266 | -104.66248 | 5417 ft | 9 kts | 341° |
| 2026-05-03 22:05 | 39.85290 | -104.66293 | 5418 ft | 4 kts | 286° |
| 2026-05-03 22:05 | 39.85296 | -104.66328 | 5418 ft | 4 kts | 273° |
| 2026-05-03 22:05 | 39.85295 | -104.66388 | 5417 ft | 7 kts | 268° |
| 2026-05-03 22:06 | 39.85292 | -104.66464 | 5415 ft | 8 kts | 267° |
| 2026-05-03 22:06 | 39.85296 | -104.66544 | 5414 ft | 8 kts | 294° |
| 2026-05-03 22:06 | 39.85330 | -104.66581 | 5415 ft | 5 kts | 344° |
| 2026-05-03 22:06 | 39.85361 | -104.66585 | 5416 ft | 3 kts | 358° |
| 2026-05-03 22:07 | 39.85386 | -104.66586 | 5418 ft | 4 kts | 358° |
| 2026-05-03 22:07 | 39.85434 | -104.66589 | 5420 ft | 9 kts | 357° |
| 2026-05-03 22:07 | 39.85519 | -104.66593 | 5423 ft | 13 kts | 356° |
| 2026-05-03 22:07 | 39.85583 | -104.66685 | 5424 ft | 16 kts | 286° |
| 2026-05-03 22:08 | 39.85660 | -104.66790 | 5423 ft | 15 kts | 344° |
| 2026-05-03 22:08 | 39.85754 | -104.66792 | 5423 ft | 10 kts | 4° |
| 2026-05-03 22:08 | 39.85788 | -104.66794 | 5423 ft | 2 kts | 0° |
| 2026-05-03 22:08 | 39.85800 | -104.66794 | 5423 ft | 0 kts | 0° |